Time;durP1;ratioP1;P1;durP2;ratioP2;P2;SDS_P1;SDS_P2;PMS_P1;PMS_P2;Temp;Humidity;BMP_temperature;BMP_pressure;BME280_temperature;BME280_humidity;BME280_pressure;Samples;Min_cycle;Max_cycle;Signal;HPM_P1;HPM_P2
2022/06/25 00:01:56;;;;;;;21.33;18.60;;;;;;;;;;4988732;28;20493;-64
2022/06/25 00:07:07;;;;;;;23.33;19.92;;;;;;;;;;4987449;28;20497;-65
2022/06/25 00:09:34;;;;;;;25.10;21.23;;;;;;;;;;4988927;28;20103;-64
2022/06/25 00:14:45;;;;;;;25.98;22.73;;;;;;;;;;4984993;28;20182;-64
2022/06/25 00:17:11;;;;;;;23.05;19.80;;;;;;;;;;4963053;28;20140;-64
2022/06/25 00:19:37;;;;;;;27.13;21.88;;;;;;;;;;4983188;28;20443;-64
2022/06/25 00:22:03;;;;;;;28.23;23.38;;;;;;;;;;4972151;28;20045;-64
2022/06/25 00:24:29;;;;;;;27.35;24.25;;;;;;;;;;4983270;28;20717;-64
2022/06/25 00:26:56;;;;;;;30.65;25.92;;;;;;;;;;4988931;28;20050;-64
2022/06/25 00:29:22;;;;;;;32.00;26.30;;;;;;;;;;4988080;28;20102;-64
2022/06/25 00:31:48;;;;;;;31.73;26.45;;;;;;;;;;4987787;28;20427;-64
2022/06/25 00:34:14;;;;;;;31.02;27.67;;;;;;;;;;4989366;28;20146;-65
2022/06/25 00:36:40;;;;;;;31.42;25.63;;;;;;;;;;4973119;28;20046;-64
2022/06/25 00:39:07;;;;;;;28.05;24.35;;;;;;;;;;4988296;28;20053;-64
2022/06/25 00:41:33;;;;;;;30.08;26.88;;;;;;;;;;4989464;28;20420;-64
2022/06/25 00:43:59;;;;;;;32.38;27.50;;;;;;;;;;4970848;28;20128;-64
2022/06/25 00:46:25;;;;;;;33.08;27.65;;;;;;;;;;4972490;28;20046;-64
2022/06/25 00:48:51;;;;;;;31.10;27.35;;;;;;;;;;4990438;28;20045;-64
2022/06/25 00:51:19;;;;;;;32.15;27.27;;;;;;;;;;4986746;28;20061;-64
2022/06/25 00:53:45;;;;;;;31.67;28.20;;;;;;;;;;4986547;28;20050;-64
2022/06/25 00:56:14;;;;;;;35.90;28.85;;;;;;;;;;4986288;28;20042;-64
2022/06/25 00:58:41;;;;;;;37.30;31.55;;;;;;;;;;4988601;28;20469;-64
2022/06/25 01:01:09;;;;;;;38.33;31.42;;;;;;;;;;4989946;28;20394;-64
2022/06/25 01:03:37;;;;;;;37.55;30.25;;;;;;;;;;4990434;28;20056;-64
2022/06/25 01:06:04;;;;;;;34.92;30.38;;;;;;;;;;4988486;28;20121;-64
2022/06/25 01:08:31;;;;;;;31.77;28.27;;;;;;;;;;4988493;28;20426;-64
2022/06/25 01:10:57;;;;;;;33.75;30.05;;;;;;;;;;4993977;28;20050;-65
2022/06/25 01:13:24;;;;;;;32.55;28.45;;;;;;;;;;4988236;28;20111;-65
2022/06/25 01:15:50;;;;;;;35.47;30.52;;;;;;;;;;4971455;28;20053;-64
2022/06/25 01:18:17;;;;;;;31.73;28.35;;;;;;;;;;4989508;28;20179;-65
2022/06/25 01:20:43;;;;;;;36.45;31.08;;;;;;;;;;4971069;28;20431;-64
2022/06/25 01:23:10;;;;;;;40.45;30.75;;;;;;;;;;4985512;28;20046;-64
2022/06/25 01:25:37;;;;;;;38.13;30.80;;;;;;;;;;4985268;28;20046;-65
2022/06/25 01:28:03;;;;;;;38.22;31.40;;;;;;;;;;4982065;28;20065;-65
2022/06/25 01:30:30;;;;;;;36.42;31.27;;;;;;;;;;4986054;28;20191;-64
2022/06/25 01:32:56;;;;;;;35.28;28.50;;;;;;;;;;4982885;28;20038;-64
2022/06/25 01:35:22;;;;;;;31.90;28.48;;;;;;;;;;4990136;28;20067;-64
2022/06/25 01:37:49;;;;;;;31.67;28.23;;;;;;;;;;4969870;28;20192;-64
2022/06/25 01:40:15;;;;;;;39.47;31.33;;;;;;;;;;4989017;28;20481;-64
2022/06/25 01:42:58;;;;;;;34.40;30.73;;;;;;;;;;4972581;28;20129;-64
2022/06/25 01:45:24;;;;;;;34.55;30.85;;;;;;;;;;4982028;28;20045;-64
2022/06/25 01:47:51;;;;;;;34.45;30.25;;;;;;;;;;4979747;28;20046;-64
2022/06/25 01:50:17;;;;;;;35.05;30.30;;;;;;;;;;4985415;28;20046;-64
2022/06/25 01:52:45;;;;;;;36.10;31.95;;;;;;;;;;4985667;28;20394;-64
2022/06/25 01:55:11;;;;;;;34.63;30.52;;;;;;;;;;4985786;28;20042;-64
2022/06/25 01:57:38;;;;;;;37.33;32.45;;;;;;;;;;4983556;28;20095;-64
2022/06/25 02:00:05;;;;;;;37.50;32.30;;;;;;;;;;4980532;28;20035;-65
2022/06/25 02:02:31;;;;;;;36.50;32.42;;;;;;;;;;4980287;28;20125;-64
2022/06/25 02:04:58;;;;;;;42.22;32.42;;;;;;;;;;4980694;28;20042;-64
2022/06/25 02:07:24;;;;;;;37.55;31.75;;;;;;;;;;4963621;28;20078;-64
2022/06/25 02:09:50;;;;;;;36.97;32.05;;;;;;;;;;4964565;28;20053;-64
2022/06/25 02:12:16;;;;;;;37.70;32.58;;;;;;;;;;4980375;28;20078;-64
2022/06/25 02:14:42;;;;;;;35.55;31.80;;;;;;;;;;4991792;28;20091;-64
2022/06/25 02:17:08;;;;;;;35.30;31.50;;;;;;;;;;4979723;28;20054;-65
2022/06/25 02:19:35;;;;;;;33.88;30.27;;;;;;;;;;4982649;28;20103;-64
2022/06/25 02:22:01;;;;;;;33.95;29.90;;;;;;;;;;4989128;28;20563;-64
2022/06/25 02:24:27;;;;;;;39.05;31.05;;;;;;;;;;4963298;28;20077;-64
2022/06/25 02:26:53;;;;;;;36.00;30.90;;;;;;;;;;4984679;28;20050;-64
2022/06/25 02:29:19;;;;;;;34.65;30.52;;;;;;;;;;4966937;28;20054;-64
2022/06/25 02:31:45;;;;;;;35.00;31.08;;;;;;;;;;4984004;28;20034;-64
2022/06/25 02:34:12;;;;;;;39.00;29.90;;;;;;;;;;4983317;28;20054;-64
2022/06/25 02:36:38;;;;;;;34.72;29.75;;;;;;;;;;4982621;28;20038;-64
2022/06/25 02:39:04;;;;;;;34.00;29.65;;;;;;;;;;4983775;28;20050;-64
2022/06/25 02:41:30;;;;;;;36.70;30.75;;;;;;;;;;4982760;28;20122;-64
2022/06/25 02:43:56;;;;;;;34.65;29.95;;;;;;;;;;4983021;28;20065;-64
2022/06/25 02:46:23;;;;;;;32.65;29.20;;;;;;;;;;4982783;28;21752;-64
2022/06/25 02:48:49;;;;;;;31.15;27.55;;;;;;;;;;4979743;28;20050;-64
2022/06/25 02:51:15;;;;;;;32.45;28.02;;;;;;;;;;4967399;28;20069;-64
2022/06/25 02:53:41;;;;;;;32.25;27.73;;;;;;;;;;4980445;28;20123;-64
2022/06/25 02:58:54;;;;;;;36.08;27.13;;;;;;;;;;4981243;28;20050;-64
2022/06/25 03:01:20;;;;;;;30.42;26.38;;;;;;;;;;4981693;28;20165;-64
2022/06/25 03:03:47;;;;;;;29.88;26.10;;;;;;;;;;4963375;28;20038;-65
2022/06/25 03:06:13;;;;;;;33.47;26.63;;;;;;;;;;4962441;28;20508;-64
2022/06/25 03:08:39;;;;;;;29.77;25.75;;;;;;;;;;4982671;28;20088;-64
2022/06/25 03:11:06;;;;;;;30.17;26.50;;;;;;;;;;4981122;28;20049;-64
2022/06/25 03:13:34;;;;;;;30.50;26.10;;;;;;;;;;4966120;28;20121;-64
2022/06/25 03:16:01;;;;;;;35.70;26.10;;;;;;;;;;4963127;28;20367;-64
2022/06/25 03:18:27;;;;;;;32.30;25.35;;;;;;;;;;4960842;28;20061;-64
2022/06/25 03:20:54;;;;;;;31.13;25.15;;;;;;;;;;4961446;28;20103;-64
2022/06/25 03:23:20;;;;;;;29.48;24.92;;;;;;;;;;4960447;28;20042;-64
2022/06/25 03:25:47;;;;;;;30.42;24.40;;;;;;;;;;4961394;28;20080;-64
2022/06/25 03:28:14;;;;;;;27.63;23.17;;;;;;;;;;4961929;28;20058;-64
2022/06/25 03:30:40;;;;;;;30.88;24.85;;;;;;;;;;4958611;28;20046;-64
2022/06/25 03:33:06;;;;;;;29.90;24.65;;;;;;;;;;4959921;28;20058;-64
2022/06/25 03:35:32;;;;;;;29.27;23.92;;;;;;;;;;4960937;28;20405;-64
2022/06/25 03:37:58;;;;;;;29.45;24.15;;;;;;;;;;4961473;28;20045;-64
2022/06/25 03:40:24;;;;;;;27.33;23.30;;;;;;;;;;4963622;28;20046;-64
2022/06/25 03:42:51;;;;;;;29.20;23.10;;;;;;;;;;4960393;28;21454;-65
2022/06/25 03:45:17;;;;;;;26.63;23.75;;;;;;;;;;4963630;28;20075;-65
2022/06/25 03:47:49;;;;;;;27.33;23.83;;;;;;;;;;4961699;28;20045;-64
2022/06/25 03:50:16;;;;;;;26.20;23.53;;;;;;;;;;4961556;28;20084;-64
2022/06/25 03:52:43;;;;;;;34.08;22.67;;;;;;;;;;4960928;28;20098;-64
2022/06/25 03:55:09;;;;;;;25.30;22.10;;;;;;;;;;4961950;28;20042;-64
2022/06/25 03:57:35;;;;;;;23.48;21.02;;;;;;;;;;4958996;28;20074;-64
2022/06/25 04:00:03;;;;;;;23.75;21.17;;;;;;;;;;4958276;28;20042;-64
2022/06/25 04:02:30;;;;;;;24.98;20.90;;;;;;;;;;4965018;28;20039;-64
2022/06/25 04:04:56;;;;;;;25.90;20.98;;;;;;;;;;4963959;28;20073;-64
2022/06/25 04:07:22;;;;;;;25.13;20.48;;;;;;;;;;4963433;28;20046;-64
2022/06/25 04:09:48;;;;;;;23.35;20.27;;;;;;;;;;4965238;28;20108;-64
2022/06/25 04:12:14;;;;;;;21.83;19.35;;;;;;;;;;4966330;28;20124;-64
2022/06/25 04:14:41;;;;;;;22.73;18.30;;;;;;;;;;4980300;28;20481;-64
2022/06/25 04:17:07;;;;;;;22.63;18.98;;;;;;;;;;4993281;28;20042;-64
2022/06/25 04:19:40;;;;;;;23.60;18.35;;;;;;;;;;4994605;28;21046;-64
2022/06/25 04:22:07;;;;;;;24.92;17.77;;;;;;;;;;4993764;28;20110;-64
2022/06/25 04:24:34;;;;;;;18.65;16.58;;;;;;;;;;4993572;28;20405;-64
2022/06/25 04:27:01;;;;;;;19.95;17.48;;;;;;;;;;4995733;28;20102;-64
2022/06/25 04:29:27;;;;;;;21.60;17.05;;;;;;;;;;4989496;28;20604;-64
2022/06/25 04:31:53;;;;;;;19.27;16.80;;;;;;;;;;4991371;28;20045;-64
2022/06/25 04:34:20;;;;;;;18.45;16.08;;;;;;;;;;4997194;28;20046;-65
2022/06/25 04:36:46;;;;;;;20.77;16.25;;;;;;;;;;4977536;28;20038;-65
2022/06/25 04:39:12;;;;;;;16.30;14.65;;;;;;;;;;4986026;28;20042;-64
2022/06/25 04:41:38;;;;;;;18.85;15.70;;;;;;;;;;4993840;28;20060;-64
2022/06/25 04:44:05;;;;;;;21.95;15.00;;;;;;;;;;4976887;28;20053;-64
2022/06/25 04:46:31;;;;;;;17.00;15.20;;;;;;;;;;4992701;28;20046;-64
2022/06/25 04:48:57;;;;;;;16.58;14.23;;;;;;;;;;4992110;28;20402;-64
2022/06/25 04:51:24;;;;;;;17.67;15.38;;;;;;;;;;4993864;28;20034;-64
2022/06/25 04:53:55;;;;;;;22.33;15.80;;;;;;;;;;4991628;28;20472;-64
2022/06/25 04:56:22;;;;;;;16.38;13.60;;;;;;;;;;4975930;28;20100;-65
2022/06/25 04:58:48;;;;;;;16.98;14.15;;;;;;;;;;4995137;28;20103;-64
2022/06/25 05:01:14;;;;;;;20.63;14.70;;;;;;;;;;4981023;28;20044;-64
2022/06/25 05:03:40;;;;;;;16.67;13.10;;;;;;;;;;4993336;28;20447;-64
2022/06/25 05:06:08;;;;;;;15.02;13.48;;;;;;;;;;4992806;28;20045;-64
2022/06/25 05:08:35;;;;;;;19.33;14.05;;;;;;;;;;4990965;28;20107;-64
2022/06/25 05:11:01;;;;;;;18.05;14.15;;;;;;;;;;4994001;28;20109;-64
2022/06/25 05:13:27;;;;;;;18.80;14.73;;;;;;;;;;4995239;28;20438;-64
2022/06/25 05:15:54;;;;;;;15.25;13.65;;;;;;;;;;4989806;28;20049;-64
2022/06/25 05:18:20;;;;;;;16.95;14.40;;;;;;;;;;5038208;28;20068;-64
2022/06/25 05:20:46;;;;;;;17.83;14.50;;;;;;;;;;4993817;28;20042;-64
2022/06/25 05:23:13;;;;;;;17.25;12.95;;;;;;;;;;4974349;28;20058;-64
2022/06/25 05:25:40;;;;;;;15.27;13.63;;;;;;;;;;4992421;28;20042;-65
2022/06/25 05:28:06;;;;;;;17.98;13.10;;;;;;;;;;4994332;28;20050;-64
2022/06/25 05:30:33;;;;;;;16.63;13.27;;;;;;;;;;4993790;28;20041;-64
2022/06/25 05:33:00;;;;;;;16.50;13.00;;;;;;;;;;4990589;28;20058;-64
2022/06/25 05:35:26;;;;;;;15.55;13.13;;;;;;;;;;4997323;28;20034;-64
2022/06/25 05:37:53;;;;;;;15.35;13.07;;;;;;;;;;4996607;28;20047;-63
2022/06/25 05:40:19;;;;;;;17.75;14.23;;;;;;;;;;4991340;28;20429;-64
2022/06/25 05:42:45;;;;;;;17.15;12.40;;;;;;;;;;4991453;28;20431;-64
2022/06/25 05:45:11;;;;;;;17.77;13.25;;;;;;;;;;4975459;28;20154;-64
2022/06/25 05:47:38;;;;;;;17.98;13.65;;;;;;;;;;4956914;28;20051;-64
2022/06/25 05:50:04;;;;;;;17.58;12.77;;;;;;;;;;4977921;28;20604;-64
2022/06/25 05:52:30;;;;;;;20.58;13.98;;;;;;;;;;4988707;28;20038;-64
2022/06/25 05:54:57;;;;;;;17.90;13.25;;;;;;;;;;4993385;28;20412;-64
2022/06/25 05:57:23;;;;;;;16.33;12.75;;;;;;;;;;4993576;28;20106;-64
2022/06/25 05:59:49;;;;;;;16.85;13.30;;;;;;;;;;4993695;28;20045;-64
2022/06/25 06:02:16;;;;;;;19.00;12.80;;;;;;;;;;4994829;28;21467;-64
2022/06/25 06:04:42;;;;;;;17.92;13.52;;;;;;;;;;4991311;28;20046;-64
2022/06/25 06:07:09;;;;;;;19.48;12.70;;;;;;;;;;4991056;28;20037;-65
2022/06/25 06:09:35;;;;;;;18.40;12.45;;;;;;;;;;4989152;28;20046;-64
2022/06/25 06:12:01;;;;;;;17.55;12.65;;;;;;;;;;4957377;28;20446;-64
2022/06/25 06:14:28;;;;;;;16.75;13.55;;;;;;;;;;5030229;28;20777;-64
2022/06/25 06:16:56;;;;;;;16.55;12.80;;;;;;;;;;5053598;28;20189;-64
2022/06/25 06:19:22;;;;;;;14.13;12.63;;;;;;;;;;5058200;28;20131;-64
2022/06/25 06:21:50;;;;;;;17.65;12.38;;;;;;;;;;5052530;28;20072;-64
2022/06/25 06:24:16;;;;;;;14.23;12.07;;;;;;;;;;5053053;28;20050;-64
2022/06/25 06:26:42;;;;;;;19.90;12.35;;;;;;;;;;5056144;28;20381;-64
2022/06/25 06:29:08;;;;;;;18.42;12.18;;;;;;;;;;5054669;28;20090;-64
2022/06/25 06:31:34;;;;;;;15.25;12.13;;;;;;;;;;5052235;28;20045;-64
2022/06/25 06:34:01;;;;;;;15.55;12.23;;;;;;;;;;5048952;28;20048;-64
2022/06/25 06:36:27;;;;;;;13.35;11.90;;;;;;;;;;5052729;28;20076;-64
2022/06/25 06:38:53;;;;;;;16.80;11.23;;;;;;;;;;5059088;28;20048;-64
2022/06/25 06:41:19;;;;;;;14.02;10.85;;;;;;;;;;5050778;28;20945;-64
2022/06/25 06:43:46;;;;;;;14.73;10.85;;;;;;;;;;5045484;28;20056;-64
2022/06/25 06:46:13;;;;;;;13.90;10.80;;;;;;;;;;5045292;28;20156;-63
2022/06/25 06:48:40;;;;;;;13.55;9.50;;;;;;;;;;5044188;28;20048;-63
2022/06/25 06:51:07;;;;;;;12.75;9.90;;;;;;;;;;5044482;28;20124;-63
2022/06/25 06:53:34;;;;;;;10.18;8.93;;;;;;;;;;5052221;28;20053;-63
2022/06/25 06:56:00;;;;;;;14.27;8.75;;;;;;;;;;5050266;28;20385;-64
2022/06/25 06:58:27;;;;;;;11.55;8.90;;;;;;;;;;5047302;28;20077;-63
2022/06/25 07:00:53;;;;;;;14.65;8.95;;;;;;;;;;5050769;28;20055;-63
2022/06/25 07:03:20;;;;;;;16.55;8.38;;;;;;;;;;5049245;28;20465;-63
2022/06/25 07:05:46;;;;;;;10.85;7.78;;;;;;;;;;5049410;28;20120;-63
2022/06/25 07:08:12;;;;;;;11.25;8.23;;;;;;;;;;5049731;28;20103;-64
2022/06/25 07:10:40;;;;;;;14.77;7.40;;;;;;;;;;5046967;28;20039;-63
2022/06/25 07:13:06;;;;;;;10.32;7.28;;;;;;;;;;5058779;28;20054;-63
2022/06/25 07:15:32;;;;;;;12.85;7.60;;;;;;;;;;4970331;28;20191;-63
2022/06/25 07:17:58;;;;;;;8.63;6.65;;;;;;;;;;4991120;28;20180;-63
2022/06/25 07:20:24;;;;;;;9.23;6.35;;;;;;;;;;4983448;28;20513;-63
2022/06/25 07:22:51;;;;;;;11.85;6.53;;;;;;;;;;4987545;28;20042;-63
2022/06/25 07:25:17;;;;;;;12.05;6.88;;;;;;;;;;4969595;28;20119;-63
2022/06/25 07:27:44;;;;;;;12.23;7.35;;;;;;;;;;4986213;28;20057;-63
2022/06/25 07:30:11;;;;;;;13.40;6.20;;;;;;;;;;4988745;28;20042;-63
2022/06/25 07:32:38;;;;;;;10.95;5.90;;;;;;;;;;4983972;28;20046;-63
2022/06/25 07:35:04;;;;;;;9.18;5.97;;;;;;;;;;4969211;28;20151;-64
2022/06/25 07:37:30;;;;;;;8.50;6.00;;;;;;;;;;4986796;28;20125;-63
2022/06/25 07:39:56;;;;;;;9.82;5.18;;;;;;;;;;4992509;28;20394;-63
2022/06/25 07:42:23;;;;;;;9.98;6.25;;;;;;;;;;4988996;28;20180;-63
2022/06/25 07:44:49;;;;;;;10.40;5.50;;;;;;;;;;4989377;28;20125;-64
2022/06/25 07:47:16;;;;;;;11.00;5.35;;;;;;;;;;4973124;28;20060;-63
2022/06/25 07:52:27;;;;;;;10.05;5.28;;;;;;;;;;4989851;28;20086;-63
2022/06/25 07:54:53;;;;;;;9.70;5.10;;;;;;;;;;4992264;28;20038;-63
2022/06/25 07:57:19;;;;;;;9.38;4.88;;;;;;;;;;4997937;28;20045;-64
2022/06/25 07:59:46;;;;;;;8.10;4.10;;;;;;;;;;4995133;28;20394;-63
2022/06/25 08:02:12;;;;;;;10.15;4.35;;;;;;;;;;4998201;28;20087;-63
2022/06/25 08:04:38;;;;;;;9.73;4.45;;;;;;;;;;4994997;28;20523;-63
2022/06/25 08:07:04;;;;;;;9.13;4.80;;;;;;;;;;4993695;28;20042;-63
2022/06/25 08:09:31;;;;;;;7.68;4.57;;;;;;;;;;4992340;28;20394;-63
2022/06/25 08:11:57;;;;;;;10.13;5.45;;;;;;;;;;4987475;28;20512;-63
2022/06/25 08:14:23;;;;;;;8.93;4.47;;;;;;;;;;4991312;28;20057;-64
2022/06/25 08:16:49;;;;;;;10.10;5.38;;;;;;;;;;5047729;28;20067;-63
2022/06/25 08:19:16;;;;;;;11.52;5.05;;;;;;;;;;5049525;28;20036;-64
2022/06/25 08:21:42;;;;;;;10.68;5.32;;;;;;;;;;5047189;28;20096;-64
2022/06/25 08:24:08;;;;;;;8.68;5.10;;;;;;;;;;5045657;28;20036;-64
2022/06/25 08:26:34;;;;;;;10.20;6.18;;;;;;;;;;5047201;28;20045;-64
2022/06/25 08:29:00;;;;;;;8.45;5.15;;;;;;;;;;5047968;28;20041;-64
2022/06/25 08:31:28;;;;;;;10.90;5.32;;;;;;;;;;5046977;28;20045;-64
2022/06/25 08:33:54;;;;;;;10.82;5.00;;;;;;;;;;5045292;28;21480;-63
2022/06/25 08:36:20;;;;;;;10.07;4.35;;;;;;;;;;5049412;28;20052;-63
2022/06/25 08:38:46;;;;;;;12.43;5.70;;;;;;;;;;5049138;28;20127;-63
2022/06/25 08:41:13;;;;;;;8.55;4.53;;;;;;;;;;5055227;28;20625;-63
2022/06/25 08:43:39;;;;;;;9.98;4.88;;;;;;;;;;5055862;28;20055;-63
2022/06/25 08:46:06;;;;;;;9.20;4.07;;;;;;;;;;5054373;28;20078;-63
2022/06/25 08:48:33;;;;;;;7.85;4.30;;;;;;;;;;5052064;28;20386;-63
2022/06/25 08:50:59;;;;;;;9.02;4.57;;;;;;;;;;5048337;28;20136;-63
2022/06/25 08:53:30;;;;;;;7.95;4.25;;;;;;;;;;5045863;28;20626;-63
2022/06/25 08:55:58;;;;;;;7.88;4.20;;;;;;;;;;5049585;28;20056;-63
2022/06/25 08:58:24;;;;;;;9.75;4.60;;;;;;;;;;5052184;28;20167;-63
2022/06/25 09:00:50;;;;;;;8.73;4.88;;;;;;;;;;5046595;28;20045;-63
2022/06/25 09:03:17;;;;;;;13.40;5.30;;;;;;;;;;5049651;28;20499;-63
2022/06/25 09:05:44;;;;;;;9.27;4.63;;;;;;;;;;5030976;28;20504;-64
2022/06/25 09:08:12;;;;;;;7.82;3.83;;;;;;;;;;5047353;28;20080;-64
2022/06/25 09:10:39;;;;;;;8.32;3.75;;;;;;;;;;5043725;28;21772;-64
2022/06/25 09:13:06;;;;;;;10.13;5.15;;;;;;;;;;5046189;28;20052;-63
2022/06/25 09:15:34;;;;;;;12.75;4.95;;;;;;;;;;4989564;28;20051;-64
2022/06/25 09:18:07;;;;;;;8.48;4.47;;;;;;;;;;4996798;28;20639;-64
2022/06/25 09:20:34;;;;;;;11.35;4.43;;;;;;;;;;5007433;28;20357;-64
2022/06/25 09:23:02;;;;;;;8.68;4.13;;;;;;;;;;5004935;28;20041;-64
2022/06/25 09:25:31;;;;;;;9.35;4.32;;;;;;;;;;4988896;28;20042;-65
2022/06/25 09:27:57;;;;;;;9.23;4.90;;;;;;;;;;5007579;28;20091;-64
2022/06/25 09:30:25;;;;;;;9.07;4.05;;;;;;;;;;4996312;28;20481;-64
2022/06/25 09:32:55;;;;;;;8.60;4.45;;;;;;;;;;4991000;28;20402;-63
2022/06/25 09:35:29;;;;;;;9.88;4.50;;;;;;;;;;4995672;28;20069;-63
2022/06/25 09:38:03;;;;;;;8.95;4.18;;;;;;;;;;4995292;28;20073;-64
2022/06/25 09:40:29;;;;;;;;;;;;;;;;;;4990428;28;20046;-63
2022/06/25 09:42:56;;;;;;;6.80;3.88;;;;;;;;;;4992542;28;19991;-64
2022/06/25 09:45:23;;;;;;;8.45;4.05;;;;;;;;;;4994003;28;20049;-63
2022/06/25 09:47:49;;;;;;;6.38;3.40;;;;;;;;;;4992802;28;20107;-63
2022/06/25 09:50:17;;;;;;;9.45;3.65;;;;;;;;;;4994238;28;20082;-63
2022/06/25 09:52:55;;;;;;;7.88;3.25;;;;;;;;;;4983788;28;20432;-63
2022/06/25 09:55:23;;;;;;;5.28;3.45;;;;;;;;;;4985230;28;20126;-63
2022/06/25 09:57:51;;;;;;;6.80;3.65;;;;;;;;;;4986785;28;20098;-63
2022/06/25 10:00:18;;;;;;;8.57;4.00;;;;;;;;;;4964410;28;20374;-63
2022/06/25 10:02:46;;;;;;;7.85;4.47;;;;;;;;;;4989250;28;20038;-63
2022/06/25 10:05:13;;;;;;;7.15;3.47;;;;;;;;;;4980472;28;20050;-63
2022/06/25 10:08:00;;;;;;;7.13;3.65;;;;;;;;;;4986162;28;20089;-63
2022/06/25 10:10:28;;;;;;;6.03;3.20;;;;;;;;;;4982442;28;20050;-63
2022/06/25 10:12:54;;;;;;;7.57;3.42;;;;;;;;;;4982769;28;20068;-63
2022/06/25 10:15:23;;;;;;;5.57;3.35;;;;;;;;;;5038283;28;20049;-63
2022/06/25 10:17:51;;;;;;;12.73;3.85;;;;;;;;;;5043473;28;22175;-63
2022/06/25 10:20:18;;;;;;;6.03;3.30;;;;;;;;;;5039999;28;20049;-63
2022/06/25 10:22:46;;;;;;;10.02;3.10;;;;;;;;;;5043929;28;20087;-63
2022/06/25 10:25:13;;;;;;;9.27;2.78;;;;;;;;;;5041194;28;20156;-64
2022/06/25 10:27:41;;;;;;;7.28;2.70;;;;;;;;;;5042733;28;20469;-63
2022/06/25 10:30:08;;;;;;;5.18;2.42;;;;;;;;;;5044948;28;20518;-63
2022/06/25 10:32:41;;;;;;;8.02;2.38;;;;;;;;;;5041461;28;20045;-63
2022/06/25 10:35:08;;;;;;;4.18;1.77;;;;;;;;;;5039260;28;20049;-63
2022/06/25 10:37:53;;;;;;;4.90;2.30;;;;;;;;;;5042711;28;20043;-63
2022/06/25 10:40:19;;;;;;;7.38;2.83;;;;;;;;;;5041979;28;20053;-63
2022/06/25 10:42:59;;;;;;;7.95;3.03;;;;;;;;;;5043329;28;20037;-63
2022/06/25 10:45:26;;;;;;;8.38;2.42;;;;;;;;;;5038892;28;20488;-63
2022/06/25 10:47:55;;;;;;;7.10;2.53;;;;;;;;;;5042086;28;20090;-63
2022/06/25 10:50:22;;;;;;;5.93;2.38;;;;;;;;;;5041598;28;21890;-63
2022/06/25 10:53:03;;;;;;;5.80;3.05;;;;;;;;;;5044853;28;20404;-63
2022/06/25 10:55:33;;;;;;;7.88;2.90;;;;;;;;;;5042232;28;20087;-63
2022/06/25 10:58:13;;;;;;;5.57;3.00;;;;;;;;;;5041143;28;20047;-63
2022/06/25 11:00:48;;;;;;;7.32;2.35;;;;;;;;;;5042283;28;20456;-63
2022/06/25 11:03:14;;;;;;;6.10;2.97;;;;;;;;;;5043123;28;20085;-63
2022/06/25 11:05:41;;;;;;;12.43;2.67;;;;;;;;;;5048891;28;20037;-63
2022/06/25 11:08:08;;;;;;;7.40;2.55;;;;;;;;;;5044867;28;20056;-63
2022/06/25 11:10:35;;;;;;;5.93;2.20;;;;;;;;;;5047575;28;20041;-63
2022/06/25 11:13:01;;;;;;;9.23;2.50;;;;;;;;;;5056779;28;20041;-63
2022/06/25 11:15:39;;;;;;;12.70;2.97;;;;;;;;;;4999425;28;20041;-63
2022/06/25 11:18:07;;;;;;;8.65;2.70;;;;;;;;;;4996148;28;20129;-63
2022/06/25 11:20:33;;;;;;;7.65;3.55;;;;;;;;;;5000317;28;20122;-63
2022/06/25 11:23:00;;;;;;;9.82;3.13;;;;;;;;;;4998301;28;20485;-63
2022/06/25 11:30:56;;;;;;;8.73;3.53;;;;;;;;;;4999521;28;20049;-63
2022/06/25 11:33:23;;;;;;;10.07;3.55;;;;;;;;;;4989245;28;20038;-63
2022/06/25 11:35:49;;;;;;;7.28;3.17;;;;;;;;;;4988501;28;20043;-63
2022/06/25 11:38:16;;;;;;;13.38;4.10;;;;;;;;;;4992539;28;20049;-63
2022/06/25 11:40:43;;;;;;;10.25;4.07;;;;;;;;;;4972266;28;20060;-63
2022/06/25 11:43:09;;;;;;;8.00;3.55;;;;;;;;;;4990099;28;20061;-63
2022/06/25 11:45:49;;;;;;;9.05;3.58;;;;;;;;;;4996246;28;20044;-63
2022/06/25 11:48:16;;;;;;;9.20;3.17;;;;;;;;;;4988322;28;21691;-63
2022/06/25 11:50:42;;;;;;;7.80;3.30;;;;;;;;;;4988124;28;20050;-64
2022/06/25 11:53:10;;;;;;;7.95;3.13;;;;;;;;;;4992661;28;20108;-63
2022/06/25 11:55:38;;;;;;;6.30;3.20;;;;;;;;;;4990974;28;20042;-63
2022/06/25 11:58:04;;;;;;;8.25;3.38;;;;;;;;;;4988274;28;20052;-63
2022/06/25 12:00:30;;;;;;;9.57;3.28;;;;;;;;;;4987593;28;20046;-63
2022/06/25 12:03:02;;;;;;;9.43;3.70;;;;;;;;;;4993154;28;20054;-63
2022/06/25 12:05:28;;;;;;;7.93;3.40;;;;;;;;;;4976496;28;20128;-63
2022/06/25 12:07:56;;;;;;;9.25;2.92;;;;;;;;;;4993327;28;20110;-63
2022/06/25 12:10:23;;;;;;;7.60;3.38;;;;;;;;;;4993710;28;20058;-64
2022/06/25 12:12:49;;;;;;;8.27;3.15;;;;;;;;;;4993404;28;20058;-63
2022/06/25 12:15:15;;;;;;;8.38;4.03;;;;;;;;;;4988864;28;20054;-63
2022/06/25 12:17:43;;;;;;;9.10;3.10;;;;;;;;;;4977216;28;20145;-63
2022/06/25 12:20:10;;;;;;;9.50;3.03;;;;;;;;;;4973795;28;20061;-63
2022/06/25 12:22:38;;;;;;;8.80;3.40;;;;;;;;;;4991257;28;20046;-63
2022/06/25 12:25:05;;;;;;;9.25;3.20;;;;;;;;;;4996540;28;20111;-63
2022/06/25 12:27:31;;;;;;;8.75;3.35;;;;;;;;;;4985685;28;20187;-63
2022/06/25 12:30:00;;;;;;;9.70;3.72;;;;;;;;;;4985864;28;20512;-63
2022/06/25 12:32:39;;;;;;;6.93;3.40;;;;;;;;;;4966679;28;20179;-63
2022/06/25 12:35:13;;;;;;;10.35;3.97;;;;;;;;;;4986502;28;20125;-63
2022/06/25 12:37:39;;;;;;;10.93;4.03;;;;;;;;;;4985613;28;20082;-64
2022/06/25 12:40:05;;;;;;;8.27;4.70;;;;;;;;;;4982543;28;20046;-64
2022/06/25 12:42:33;;;;;;;8.70;4.35;;;;;;;;;;5033625;28;20042;-63
2022/06/25 12:44:59;;;;;;;6.30;3.80;;;;;;;;;;4984250;28;20454;-63
2022/06/25 12:47:25;;;;;;;7.93;4.50;;;;;;;;;;4963827;28;20121;-64
2022/06/25 12:49:54;;;;;;;6.78;4.20;;;;;;;;;;4987003;28;20050;-63
2022/06/25 12:52:20;;;;;;;5.43;3.92;;;;;;;;;;4983380;28;20053;-64
2022/06/25 12:54:54;;;;;;;8.73;4.28;;;;;;;;;;4979216;28;20047;-64
2022/06/25 12:57:22;;;;;;;6.05;4.43;;;;;;;;;;4984599;28;20068;-64
2022/06/25 12:59:48;;;;;;;7.35;5.78;;;;;;;;;;4971355;28;20034;-63
2022/06/25 13:02:15;;;;;;;8.30;4.93;;;;;;;;;;4975780;28;20173;-63
2022/06/25 13:04:42;;;;;;;10.45;6.13;;;;;;;;;;4988393;28;20129;-63
2022/06/25 13:07:10;;;;;;;7.85;5.88;;;;;;;;;;4987283;28;20110;-63
2022/06/25 13:09:36;;;;;;;8.40;5.03;;;;;;;;;;4971252;28;20054;-63
2022/06/25 13:12:02;;;;;;;8.77;5.20;;;;;;;;;;4968507;28;20046;-63
2022/06/25 13:14:28;;;;;;;11.52;5.72;;;;;;;;;;4970823;28;20077;-63
2022/06/25 13:16:57;;;;;;;6.85;4.60;;;;;;;;;;4986431;28;20062;-62
2022/06/25 13:19:24;;;;;;;9.05;5.40;;;;;;;;;;4992254;28;20045;-63
2022/06/25 13:21:50;;;;;;;6.45;4.90;;;;;;;;;;4994691;28;20501;-63
2022/06/25 13:24:16;;;;;;;8.10;5.75;;;;;;;;;;4987361;28;20046;-63
2022/06/25 13:26:43;;;;;;;8.23;5.03;;;;;;;;;;4987708;28;20050;-63
2022/06/25 13:29:09;;;;;;;7.18;5.18;;;;;;;;;;4985334;28;20042;-63
2022/06/25 13:31:36;;;;;;;7.85;5.30;;;;;;;;;;4970957;28;20042;-63
2022/06/25 13:34:02;;;;;;;7.68;5.55;;;;;;;;;;4983726;28;20393;-63
2022/06/25 13:36:28;;;;;;;7.57;5.00;;;;;;;;;;4970772;28;20493;-63
2022/06/25 13:38:55;;;;;;;9.05;5.43;;;;;;;;;;4990134;28;20050;-64
2022/06/25 13:41:21;;;;;;;10.63;6.60;;;;;;;;;;4985879;28;20519;-63
2022/06/25 13:43:53;;;;;;;10.55;6.20;;;;;;;;;;4980469;28;20054;-63
2022/06/25 13:46:20;;;;;;;7.00;4.85;;;;;;;;;;4966054;28;20095;-63
2022/06/25 13:48:47;;;;;;;9.70;6.35;;;;;;;;;;4964988;28;20355;-63
2022/06/25 13:51:13;;;;;;;9.18;6.25;;;;;;;;;;4984044;28;20497;-63
2022/06/25 13:53:39;;;;;;;8.30;5.93;;;;;;;;;;4984319;28;20157;-64
2022/06/25 13:56:05;;;;;;;8.40;5.75;;;;;;;;;;4973590;28;20034;-63
2022/06/25 13:58:31;;;;;;;9.35;6.35;;;;;;;;;;4969220;28;20433;-63
2022/06/25 14:00:58;;;;;;;15.40;8.60;;;;;;;;;;4992756;28;20125;-63
2022/06/25 14:03:25;;;;;;;24.88;9.93;;;;;;;;;;4989890;28;20041;-63
2022/06/25 14:05:51;;;;;;;17.05;6.88;;;;;;;;;;4960876;28;20057;-64
2022/06/25 14:08:18;;;;;;;17.58;6.03;;;;;;;;;;4991549;28;20049;-63
2022/06/25 14:10:44;;;;;;;15.95;5.35;;;;;;;;;;4969196;28;20054;-63
2022/06/25 14:13:10;;;;;;;15.18;5.45;;;;;;;;;;4970454;28;20477;-64
2022/06/25 14:15:37;;;;;;;14.02;5.18;;;;;;;;;;4971605;28;20149;-63
2022/06/25 14:18:03;;;;;;;13.65;4.68;;;;;;;;;;4969077;28;20050;-63
2022/06/25 14:20:29;;;;;;;12.85;4.68;;;;;;;;;;4991484;28;20046;-63
2022/06/25 14:22:56;;;;;;;11.65;4.85;;;;;;;;;;4975580;28;20437;-63
2022/06/25 14:25:24;;;;;;;15.70;4.45;;;;;;;;;;4989914;28;20065;-63
2022/06/25 14:27:51;;;;;;;14.88;4.70;;;;;;;;;;4988212;28;20054;-63
2022/06/25 14:30:17;;;;;;;14.85;4.63;;;;;;;;;;4993595;28;20128;-63
2022/06/25 14:32:44;;;;;;;11.05;3.97;;;;;;;;;;4988024;28;20497;-63
2022/06/25 14:35:11;;;;;;;13.15;3.65;;;;;;;;;;4990415;28;20038;-62
2022/06/25 14:43:07;;;;;;;18.95;4.72;;;;;;;;;;4992553;28;20070;-63
2022/06/25 14:45:33;;;;;;;15.85;4.13;;;;;;;;;;4990188;28;20082;-63
2022/06/25 14:47:59;;;;;;;16.60;3.92;;;;;;;;;;4967156;28;20485;-63
2022/06/25 14:50:26;;;;;;;9.68;3.30;;;;;;;;;;4983675;28;20544;-63